Time;durP1;ratioP1;P1;durP2;ratioP2;P2;SDS_P1;SDS_P2;PMS_P1;PMS_P2;Temp;Humidity;BMP_temperature;BMP_pressure;BME280_temperature;BME280_humidity;BME280_pressure;Samples;Min_cycle;Max_cycle;Signal;HPM_P1;HPM_P2
2021/12/24 00:02:07;;;;;;;;;;;6.80;19.10;;;;;;5053916;28;19979;-70
2021/12/24 00:04:36;;;;;;;;;;;6.70;20.00;;;;;;5052286;28;19929;-70
2021/12/24 00:07:04;;;;;;;;;;;6.60;20.10;;;;;;5052310;28;19938;-70
2021/12/24 00:09:34;;;;;;;;;;;6.70;21.40;;;;;;5052375;28;19929;-70
2021/12/24 00:12:05;;;;;;;;;;;6.80;20.30;;;;;;5055460;28;19929;-70
2021/12/24 00:14:33;;;;;;;;;;;6.70;20.50;;;;;;5050659;28;19977;-70
2021/12/24 00:17:04;;;;;;;;;;;6.70;20.70;;;;;;5037579;28;19994;-70
2021/12/24 00:19:42;;;;;;;;;;;6.70;20.70;;;;;;5057243;28;20384;-70
2021/12/24 00:22:39;;;;;;;;;;;6.90;20.80;;;;;;5041381;28;20060;-70
2021/12/24 00:36:09;;;;;;;;;;;6.70;21.70;;;;;;5054531;28;20294;-71
2021/12/24 00:38:37;;;;;;;;;;;6.80;21.10;;;;;;5052262;28;20018;-71
2021/12/24 00:41:06;;;;;;;;;;;6.80;20.80;;;;;;5057575;28;19940;-71
2021/12/24 00:43:34;;;;;;;;;;;6.80;21.10;;;;;;5035790;28;20573;-71
2021/12/24 00:46:02;;;;;;;;;;;7.00;20.90;;;;;;5051034;28;20396;-71
2021/12/24 00:48:30;;;;;;;;;;;7.00;19.30;;;;;;5055563;28;19924;-71
2021/12/24 00:51:18;;;;;;;;;;;7.00;19.60;;;;;;5056981;28;19971;-71
2021/12/24 00:56:33;;;;;;;;;;;6.90;20.00;;;;;;5056435;28;19940;-71
2021/12/24 00:59:02;;;;;;;;;;;7.00;19.80;;;;;;5055054;28;19928;-71
2021/12/24 01:01:30;;;;;;;;;;;6.90;19.30;;;;;;5053866;28;20315;-70
2021/12/24 01:03:58;;;;;;;;;;;6.90;19.80;;;;;;5054928;28;19928;-71
2021/12/24 01:06:26;;;;;;;;;;;6.90;19.60;;;;;;5054776;28;19986;-71
2021/12/24 01:08:54;;;;;;;;;;;6.80;19.90;;;;;;5054807;28;19979;-71
2021/12/24 01:11:22;;;;;;;;;;;6.80;20.60;;;;;;5055238;28;20011;-69
2021/12/24 01:13:51;;;;;;;;;;;6.80;20.70;;;;;;5051548;28;19929;-70
2021/12/24 01:16:25;;;;;;;;;;;6.80;20.70;;;;;;5053591;28;19934;-70
2021/12/24 01:19:00;;;;;;;;;;;6.90;20.50;;;;;;5051708;28;20532;-70
2021/12/24 01:21:45;;;;;;;;;;;6.80;20.30;;;;;;5054689;28;20484;-70
2021/12/24 01:24:19;;;;;;;;;;;6.90;20.40;;;;;;5049369;28;20001;-70
2021/12/24 01:26:57;;;;;;;;;;;6.90;20.00;;;;;;5041887;28;19935;-70
2021/12/24 01:29:45;;;;;;;;;;;6.90;20.60;;;;;;5056909;28;19935;-70
2021/12/24 01:38:10;;;;;;;;;;;6.90;20.60;;;;;;5030635;28;20380;-71
2021/12/24 01:40:52;;;;;;;;;;;6.90;19.20;;;;;;5039452;28;19928;-70
2021/12/24 01:43:19;;;;;;;;;;;6.80;19.50;;;;;;5039583;28;20063;-70
2021/12/24 01:45:49;;;;;;;;;;;6.80;20.10;;;;;;5035702;28;19936;-70
2021/12/24 01:48:17;;;;;;;;;;;6.80;20.70;;;;;;5040522;28;19979;-70
2021/12/24 01:50:47;;;;;;;;;;;7.00;19.70;;;;;;5037130;28;19933;-70
2021/12/24 01:53:16;;;;;;;;;;;7.00;19.30;;;;;;5038333;28;19928;-70
2021/12/24 01:55:44;;;;;;;;;;;7.00;19.40;;;;;;5039796;28;19925;-70
2021/12/24 01:58:18;;;;;;;;;;;6.90;19.60;;;;;;5025034;28;20020;-70
2021/12/24 02:00:49;;;;;;;;;;;6.90;20.10;;;;;;5037898;28;19932;-70
2021/12/24 02:03:19;;;;;;;;;;;6.90;19.90;;;;;;5039396;28;20027;-70
2021/12/24 02:05:48;;;;;;;;;;;6.90;19.80;;;;;;5022255;28;20015;-69
2021/12/24 02:08:16;;;;;;;;;;;6.80;20.10;;;;;;5036700;28;19970;-70
2021/12/24 02:10:45;;;;;;;;;;;6.90;20.70;;;;;;5039259;28;19968;-71
2021/12/24 02:13:14;;;;;;;;;;;6.80;20.20;;;;;;5038957;28;20023;-70
2021/12/24 02:15:58;;;;;;;;;;;6.90;20.80;;;;;;5039491;28;19928;-69
2021/12/24 02:29:35;;;;;;;;;;;6.90;19.80;;;;;;5037180;28;20376;-70
2021/12/24 02:32:04;;;;;;;;;;;7.20;18.70;;;;;;5045965;28;20531;-71
2021/12/24 02:34:32;;;;;;;;;;;7.10;18.30;;;;;;5055982;28;20176;-70
2021/12/24 02:37:01;;;;;;;;;;;7.10;19.00;;;;;;5056109;28;20039;-70
2021/12/24 02:39:29;;;;;;;;;;;7.10;18.60;;;;;;5044206;28;20691;-70
2021/12/24 02:41:58;;;;;;;;;;;7.10;18.60;;;;;;5042632;28;20369;-70
2021/12/24 02:44:25;;;;;;;;;;;7.20;18.50;;;;;;5050057;28;19935;-70
2021/12/24 02:47:11;;;;;;;;;;;7.10;18.70;;;;;;5057906;28;19930;-70
2021/12/24 02:55:14;;;;;;;;;;;7.00;19.10;;;;;;5051426;28;19924;-70
2021/12/24 02:57:44;;;;;;;;;;;7.10;19.30;;;;;;5056151;28;19928;-70
2021/12/24 03:00:14;;;;;;;;;;;7.10;18.90;;;;;;5055401;28;20676;-70
2021/12/24 03:02:44;;;;;;;;;;;7.10;18.80;;;;;;5052320;28;19932;-70
2021/12/24 03:05:12;;;;;;;;;;;7.10;19.50;;;;;;5051721;28;20004;-70
2021/12/24 03:07:42;;;;;;;;;;;7.20;18.40;;;;;;5055346;28;19932;-70
2021/12/24 03:10:16;;;;;;;;;;;7.20;18.30;;;;;;5042536;28;19944;-69
2021/12/24 03:12:51;;;;;;;;;;;7.30;18.30;;;;;;5036640;28;20407;-70
2021/12/24 03:15:21;;;;;;;;;;;7.40;17.60;;;;;;5036462;28;19931;-70
2021/12/24 03:17:52;;;;;;;;;;;7.30;17.70;;;;;;5037053;28;19933;-70
2021/12/24 03:20:20;;;;;;;;;;;7.40;17.60;;;;;;5037497;28;20023;-70
2021/12/24 03:23:04;;;;;;;;;;;7.40;17.70;;;;;;5057091;28;20019;-70
2021/12/24 03:25:32;;;;;;;;;;;7.40;16.90;;;;;;5032745;28;20022;-71
2021/12/24 03:28:04;;;;;;;;;;;7.40;17.70;;;;;;5038017;28;19964;-70
2021/12/24 03:30:34;;;;;;;;;;;7.40;17.20;;;;;;5038202;28;19935;-70
2021/12/24 03:33:02;;;;;;;;;;;7.40;17.70;;;;;;5035196;28;19932;-70
2021/12/24 03:35:31;;;;;;;;;;;7.40;17.60;;;;;;5019974;28;19925;-70
2021/12/24 03:38:00;;;;;;;;;;;7.50;17.60;;;;;;5039850;28;20126;-70
2021/12/24 03:40:32;;;;;;;;;;;7.50;16.90;;;;;;5037863;28;20127;-69
2021/12/24 03:43:00;;;;;;;;;;;7.40;17.40;;;;;;5037882;28;20015;-69
2021/12/24 03:45:37;;;;;;;;;;;7.40;17.60;;;;;;5049191;28;19928;-70
2021/12/24 03:48:15;;;;;;;;;;;7.60;15.70;;;;;;5053732;28;20015;-70
2021/12/24 03:50:50;;;;;;;;;;;7.60;16.20;;;;;;5038355;28;19966;-70
2021/12/24 03:56:05;;;;;;;;;;;7.60;16.10;;;;;;5031806;28;20027;-71
2021/12/24 03:58:33;;;;;;;;;;;7.60;16.70;;;;;;5035510;28;19929;-71
2021/12/24 04:01:00;;;;;;;;;;;7.50;16.40;;;;;;5038531;28;19935;-70
2021/12/24 04:03:29;;;;;;;;;;;7.50;16.80;;;;;;5021479;28;19935;-70
2021/12/24 04:05:57;;;;;;;;;;;7.50;17.30;;;;;;5036269;28;20086;-70
2021/12/24 04:08:26;;;;;;;;;;;7.60;16.80;;;;;;5034397;28;20011;-70
2021/12/24 04:10:54;;;;;;;;;;;7.70;17.10;;;;;;5040515;28;19939;-69
2021/12/24 04:13:21;;;;;;;;;;;7.70;17.20;;;;;;5033321;28;20314;-68
2021/12/24 04:15:51;;;;;;;;;;;7.80;16.70;;;;;;5056033;28;19929;-70
2021/12/24 04:18:34;;;;;;;;;;;7.70;16.70;;;;;;5054195;28;20007;-70
2021/12/24 04:26:36;;;;;;;;;;;7.50;17.70;;;;;;5054435;28;19929;-70
2021/12/24 04:29:04;;;;;;;;;;;7.50;18.00;;;;;;5050004;28;19929;-70
2021/12/24 04:31:40;;;;;;;;;;;7.40;18.00;;;;;;5035934;28;20015;-68
2021/12/24 04:34:10;;;;;;;;;;;7.50;18.00;;;;;;5032211;28;19959;-70
2021/12/24 04:36:56;;;;;;;;;;;7.60;17.80;;;;;;5035944;28;19928;-68
2021/12/24 04:39:48;;;;;;;;;;;7.70;17.80;;;;;;5031063;28;20451;-68
2021/12/24 05:01:44;;;;;;;;;;;8.00;18.00;;;;;;5050307;28;20019;-70
2021/12/24 05:04:13;;;;;;;;;;;8.00;18.00;;;;;;5052197;28;19939;-70
2021/12/24 05:06:50;;;;;;;;;;;8.00;18.00;;;;;;5051071;28;19931;-69
2021/12/24 05:09:23;;;;;;;;;;;8.00;18.10;;;;;;5044693;28;19980;-70
2021/12/24 05:11:52;;;;;;;;;;;8.10;18.10;;;;;;5037548;28;20303;-69
2021/12/24 05:14:20;;;;;;;;;;;8.00;18.00;;;;;;5031596;28;19931;-69
2021/12/24 05:16:50;;;;;;;;;;;8.00;19.00;;;;;;5033345;28;19979;-69
2021/12/24 05:22:04;;;;;;;;;;;7.90;19.10;;;;;;5036063;28;20396;-69
2021/12/24 05:24:32;;;;;;;;;;;8.00;19.40;;;;;;5036294;28;20024;-69
2021/12/24 05:27:02;;;;;;;;;;;7.90;18.90;;;;;;5034607;28;19929;-69
2021/12/24 05:29:30;;;;;;;;;;;8.00;19.60;;;;;;5037379;28;19933;-69
2021/12/24 05:31:58;;;;;;;;;;;8.10;21.60;;;;;;5035537;28;19935;-69
2021/12/24 05:34:25;;;;;;;;;;;8.00;19.10;;;;;;5052206;28;19925;-69
2021/12/24 05:36:53;;;;;;;;;;;7.90;19.20;;;;;;5053941;28;20375;-70
2021/12/24 05:39:22;;;;;;;;;;;7.80;19.40;;;;;;5053411;28;19936;-67
2021/12/24 05:41:51;;;;;;;;;;;7.80;20.00;;;;;;5052096;28;19929;-70
2021/12/24 05:44:20;;;;;;;;;;;7.70;20.30;;;;;;5052162;28;19924;-70
2021/12/24 05:46:48;;;;;;;;;;;7.70;20.50;;;;;;5031085;28;19944;-68
2021/12/24 05:49:16;;;;;;;;;;;7.70;20.80;;;;;;5036987;28;19929;-68
2021/12/24 05:51:43;;;;;;;;;;;7.60;21.30;;;;;;5031765;28;19935;-68
2021/12/24 05:54:12;;;;;;;;;;;7.60;21.50;;;;;;5046766;28;20015;-69
2021/12/24 05:56:44;;;;;;;;;;;7.50;21.60;;;;;;5049576;28;19944;-68
2021/12/24 05:59:12;;;;;;;;;;;7.50;22.20;;;;;;5051311;28;20019;-68
2021/12/24 06:01:42;;;;;;;;;;;7.40;23.30;;;;;;5051212;28;20220;-68
2021/12/24 06:04:10;;;;;;;;;;;7.50;24.60;;;;;;5053727;28;19940;-68
2021/12/24 06:06:39;;;;;;;;;;;7.60;23.60;;;;;;5038008;28;19929;-69
2021/12/24 06:09:07;;;;;;;;;;;7.70;23.70;;;;;;5039099;28;19936;-69
2021/12/24 06:11:34;;;;;;;;;;;7.70;23.30;;;;;;5038218;28;20300;-69
2021/12/24 06:14:09;;;;;;;;;;;7.70;23.20;;;;;;5020109;28;19928;-69
2021/12/24 06:16:46;;;;;;;;;;;7.80;23.50;;;;;;5037117;28;19933;-70
2021/12/24 06:19:16;;;;;;;;;;;7.90;22.30;;;;;;5041502;28;20002;-70
2021/12/24 06:21:44;;;;;;;;;;;7.90;22.40;;;;;;5037544;28;20330;-70
2021/12/24 06:24:13;;;;;;;;;;;7.90;23.20;;;;;;5033329;28;19925;-68
2021/12/24 06:26:41;;;;;;;;;;;7.80;22.80;;;;;;5040044;28;19929;-68
2021/12/24 06:29:09;;;;;;;;;;;7.70;23.40;;;;;;5037561;28;19972;-70
2021/12/24 06:31:37;;;;;;;;;;;7.70;24.30;;;;;;5023157;28;19940;-68
2021/12/24 06:34:05;;;;;;;;;;;7.80;24.80;;;;;;5031510;28;19933;-68
2021/12/24 06:36:39;;;;;;;;;;;7.80;24.80;;;;;;5035314;28;19929;-69
2021/12/24 06:39:07;;;;;;;;;;;7.80;24.80;;;;;;5039663;28;19963;-68
2021/12/24 06:41:35;;;;;;;;;;;7.80;25.70;;;;;;5031578;28;19933;-69
2021/12/24 06:44:05;;;;;;;;;;;7.80;24.90;;;;;;5035104;28;19933;-69
2021/12/24 06:46:33;;;;;;;;;;;7.90;26.20;;;;;;5034425;28;19933;-69
2021/12/24 06:49:01;;;;;;;;;;;7.90;24.90;;;;;;5038939;28;19986;-69
2021/12/24 06:51:29;;;;;;;;;;;7.90;24.90;;;;;;5051074;28;19940;-69
2021/12/24 06:53:58;;;;;;;;;;;7.80;25.60;;;;;;5053629;28;19928;-69
2021/12/24 06:56:27;;;;;;;;;;;7.90;25.90;;;;;;5052828;28;19928;-69
2021/12/24 06:58:55;;;;;;;;;;;7.70;25.70;;;;;;5057301;28;20553;-69
2021/12/24 07:01:23;;;;;;;;;;;7.70;25.80;;;;;;5038609;28;19940;-69
2021/12/24 07:03:52;;;;;;;;;;;7.70;26.20;;;;;;5019898;28;19936;-70
2021/12/24 07:06:20;;;;;;;;;;;7.70;25.90;;;;;;5037239;28;19939;-70
2021/12/24 07:08:48;;;;;;;;;;;7.90;25.50;;;;;;5040737;28;19929;-70
2021/12/24 07:11:17;;;;;;;;;;;7.80;25.40;;;;;;5037164;28;20032;-70
2021/12/24 07:13:45;;;;;;;;;;;7.80;25.60;;;;;;5043238;28;20008;-68
2021/12/24 07:16:13;;;;;;;;;;;7.80;26.00;;;;;;5037478;28;19964;-68
2021/12/24 07:18:41;;;;;;;;;;;7.70;26.20;;;;;;5035421;28;20390;-68
2021/12/24 07:21:09;;;;;;;;;;;7.70;26.70;;;;;;5052642;28;20485;-68
2021/12/24 07:23:38;;;;;;;;;;;7.80;26.20;;;;;;5041534;28;20037;-68
2021/12/24 07:26:05;;;;;;;;;;;7.90;25.70;;;;;;5051961;28;19936;-69
2021/12/24 07:28:34;;;;;;;;;;;7.90;24.90;;;;;;5039089;28;19944;-69
2021/12/24 07:31:02;;;;;;;;;;;7.90;24.90;;;;;;5036912;28;19928;-70
2021/12/24 07:33:30;;;;;;;;;;;7.90;24.80;;;;;;5033548;28;19933;-70
2021/12/24 07:35:59;;;;;;;;;;;8.00;24.60;;;;;;5035754;28;20329;-68
2021/12/24 07:38:26;;;;;;;;;;;8.00;24.00;;;;;;5038847;28;19935;-69
2021/12/24 07:40:54;;;;;;;;;;;8.10;24.30;;;;;;5031433;28;19979;-73
2021/12/24 07:43:22;;;;;;;;;;;8.10;23.80;;;;;;5053845;28;19935;-70
2021/12/24 07:45:55;;;;;;;;;;;8.10;23.30;;;;;;5053382;28;19932;-70
2021/12/24 07:48:28;;;;;;;;;;;8.00;23.50;;;;;;5054243;28;20118;-70
2021/12/24 07:53:42;;;;;;;;;;;8.20;25.10;;;;;;5037315;28;19925;-69
2021/12/24 07:56:10;;;;;;;;;;;8.10;24.40;;;;;;5033172;28;19929;-69
2021/12/24 07:58:38;;;;;;;;;;;8.10;24.20;;;;;;5039012;28;20403;-68
2021/12/24 08:01:07;;;;;;;;;;;8.00;24.10;;;;;;5040986;28;20028;-68
2021/12/24 08:03:36;;;;;;;;;;;8.00;24.60;;;;;;5047162;28;19939;-70
2021/12/24 08:06:05;;;;;;;;;;;8.00;24.70;;;;;;5052969;28;19936;-70
2021/12/24 08:08:33;;;;;;;;;;;8.00;24.90;;;;;;5057186;28;19933;-68
2021/12/24 08:11:01;;;;;;;;;;;8.00;25.00;;;;;;5053340;28;20015;-70
2021/12/24 08:13:29;;;;;;;;;;;8.00;25.00;;;;;;5053937;28;19942;-70
2021/12/24 08:16:00;;;;;;;;;;;8.00;25.00;;;;;;5048722;28;19994;-69
2021/12/24 08:18:29;;;;;;;;;;;8.10;25.20;;;;;;5052636;28;19932;-70
2021/12/24 08:20:58;;;;;;;;;;;8.10;24.60;;;;;;5053521;28;19928;-71
2021/12/24 08:23:26;;;;;;;;;;;8.10;24.50;;;;;;5055047;28;19925;-69
2021/12/24 08:25:58;;;;;;;;;;;8.10;24.40;;;;;;5054564;28;20020;-69
2021/12/24 08:28:26;;;;;;;;;;;8.10;24.30;;;;;;5054161;28;20364;-69
2021/12/24 08:30:54;;;;;;;;;;;8.20;24.10;;;;;;5053413;28;19955;-69
2021/12/24 08:33:23;;;;;;;;;;;8.20;23.80;;;;;;5052079;28;19940;-69
2021/12/24 08:35:52;;;;;;;;;;;8.10;23.70;;;;;;5051283;28;20651;-69
2021/12/24 08:38:20;;;;;;;;;;;8.20;23.70;;;;;;5057092;28;19963;-69
2021/12/24 08:40:48;;;;;;;;;;;8.20;23.50;;;;;;5056940;28;19942;-69
2021/12/24 08:43:16;;;;;;;;;;;8.20;22.90;;;;;;5055517;28;19928;-69
2021/12/24 08:45:44;;;;;;;;;;;8.30;22.30;;;;;;5050092;28;19928;-69
2021/12/24 08:48:12;;;;;;;;;;;8.30;21.70;;;;;;5055843;28;19929;-69
2021/12/24 08:50:40;;;;;;;;;;;8.30;21.60;;;;;;5055395;28;19932;-70
2021/12/24 08:53:09;;;;;;;;;;;8.30;21.50;;;;;;5055241;28;19935;-69
2021/12/24 08:55:37;;;;;;;;;;;8.30;21.30;;;;;;5055588;28;19928;-69
2021/12/24 08:58:06;;;;;;;;;;;8.20;21.70;;;;;;5056027;28;20473;-69
2021/12/24 09:00:34;;;;;;;;;;;8.20;21.60;;;;;;5056864;28;20893;-70
2021/12/24 09:03:03;;;;;;;;;;;8.20;21.70;;;;;;5055462;28;19928;-70
2021/12/24 09:05:31;;;;;;;;;;;8.20;21.90;;;;;;5052250;28;19947;-69
2021/12/24 09:07:59;;;;;;;;;;;8.20;21.70;;;;;;5052711;28;19978;-70
2021/12/24 09:10:28;;;;;;;;;;;8.20;21.60;;;;;;5056970;28;19928;-69
2021/12/24 09:12:56;;;;;;;;;;;8.30;21.50;;;;;;5055320;28;19939;-70
2021/12/24 09:15:27;;;;;;;;;;;8.30;20.80;;;;;;5047998;28;19932;-69
2021/12/24 09:17:55;;;;;;;;;;;8.30;21.00;;;;;;5052191;28;19924;-70
2021/12/24 09:20:28;;;;;;;;;;;8.20;21.60;;;;;;5057456;28;19928;-70
2021/12/24 09:22:56;;;;;;;;;;;8.20;21.60;;;;;;5057652;28;20046;-70
2021/12/24 09:25:24;;;;;;;;;;;8.20;21.80;;;;;;5049336;28;19925;-70
2021/12/24 09:27:55;;;;;;;;;;;8.10;23.30;;;;;;5053075;28;19997;-70
2021/12/24 09:30:23;;;;;;;;;;;8.20;24.80;;;;;;5052591;28;21037;-70
2021/12/24 09:32:50;;;;;;;;;;;8.10;25.00;;;;;;5045877;28;19936;-70
2021/12/24 09:35:19;;;;;;;;;;;8.10;27.00;;;;;;5029030;28;20023;-70
2021/12/24 09:37:48;;;;;;;;;;;8.10;27.10;;;;;;5033737;28;19925;-70
2021/12/24 09:40:17;;;;;;;;;;;8.20;27.80;;;;;;5049339;28;20344;-70
2021/12/24 09:42:44;;;;;;;;;;;8.20;27.30;;;;;;5042334;28;20407;-70
2021/12/24 09:45:14;;;;;;;;;;;8.30;27.50;;;;;;5018128;28;20042;-70
2021/12/24 09:47:42;;;;;;;;;;;8.30;27.90;;;;;;5039936;28;19940;-70
2021/12/24 09:50:11;;;;;;;;;;;8.20;28.40;;;;;;5051436;28;19928;-70
2021/12/24 09:52:40;;;;;;;;;;;8.20;29.10;;;;;;5033173;28;19929;-70
2021/12/24 09:55:08;;;;;;;;;;;8.30;29.30;;;;;;5030971;28;19928;-70
2021/12/24 09:57:36;;;;;;;;;;;8.20;30.60;;;;;;5040512;28;19929;-70
2021/12/24 10:00:05;;;;;;;;;;;8.10;32.40;;;;;;5035837;28;20407;-69
2021/12/24 10:02:40;;;;;;;;;;;8.10;35.50;;;;;;5041110;28;19925;-70
2021/12/24 10:05:26;;;;;;;;;;;8.10;36.50;;;;;;5038322;28;19933;-70
2021/12/24 10:07:58;;;;;;;;;;;8.00;38.10;;;;;;5038081;28;20460;-71
2021/12/24 10:10:28;;;;;;;;;;;8.00;39.90;;;;;;5038849;28;19931;-71
2021/12/24 10:12:58;;;;;;;;;;;7.90;41.20;;;;;;5042846;28;19935;-70
2021/12/24 10:15:26;;;;;;;;;;;7.90;41.90;;;;;;5037294;28;19999;-70
2021/12/24 10:17:56;;;;;;;;;;;7.90;42.80;;;;;;5041662;28;20389;-70
2021/12/24 10:20:25;;;;;;;;;;;7.90;42.90;;;;;;5044025;28;20007;-71
2021/12/24 10:22:54;;;;;;;;;;;7.90;44.00;;;;;;5058799;28;19972;-71
2021/12/24 10:25:24;;;;;;;;;;;7.90;44.60;;;;;;5051964;28;19933;-71
2021/12/24 10:27:52;;;;;;;;;;;7.80;45.10;;;;;;5052363;28;19935;-71
2021/12/24 10:30:21;;;;;;;;;;;7.80;45.80;;;;;;5050636;28;20481;-71
2021/12/24 10:32:49;;;;;;;;;;;7.80;45.80;;;;;;5042410;28;19935;-71
2021/12/24 10:35:22;;;;;;;;;;;7.80;46.20;;;;;;5057282;28;19990;-71
2021/12/24 10:38:05;;;;;;;;;;;7.80;46.50;;;;;;5060280;28;19929;-71
2021/12/24 10:40:32;;;;;;;;;;;7.80;46.50;;;;;;5057393;28;19936;-71
2021/12/24 10:43:00;;;;;;;;;;;7.80;46.40;;;;;;5038967;28;19943;-72
2021/12/24 10:45:28;;;;;;;;;;;7.80;46.20;;;;;;5039411;28;19932;-71
2021/12/24 10:47:56;;;;;;;;;;;7.80;45.90;;;;;;5049182;28;19929;-71
2021/12/24 10:50:30;;;;;;;;;;;7.80;45.80;;;;;;5058739;28;20015;-71
2021/12/24 10:55:47;;;;;;;;;;;7.90;45.20;;;;;;5025720;28;19933;-71
2021/12/24 10:58:16;;;;;;;;;;;7.90;44.70;;;;;;5039551;28;19925;-71
2021/12/24 11:00:48;;;;;;;;;;;8.00;45.00;;;;;;5035342;28;19971;-72
2021/12/24 11:03:20;;;;;;;;;;;7.90;45.00;;;;;;5031071;28;19967;-71
2021/12/24 11:05:52;;;;;;;;;;;8.00;44.70;;;;;;5053511;28;20006;-71
2021/12/24 11:08:22;;;;;;;;;;;8.00;45.30;;;;;;5052958;28;19935;-71
2021/12/24 11:10:52;;;;;;;;;;;7.90;44.50;;;;;;5043441;28;20050;-71
2021/12/24 11:13:21;;;;;;;;;;;7.90;44.50;;;;;;5040828;28;19935;-70
2021/12/24 11:15:49;;;;;;;;;;;8.00;44.60;;;;;;5054889;28;19928;-70
2021/12/24 11:18:19;;;;;;;;;;;8.00;43.50;;;;;;5053041;28;19928;-70
2021/12/24 11:20:52;;;;;;;;;;;8.10;43.30;;;;;;5052899;28;20299;-70
2021/12/24 11:23:22;;;;;;;;;;;8.00;42.80;;;;;;5048981;28;19933;-70
2021/12/24 11:25:51;;;;;;;;;;;8.10;42.90;;;;;;5056853;28;20014;-70
2021/12/24 11:28:20;;;;;;;;;;;8.10;42.30;;;;;;5036961;28;19928;-70
2021/12/24 11:30:49;;;;;;;;;;;8.10;41.90;;;;;;5034099;28;19994;-71
2021/12/24 11:33:19;;;;;;;;;;;8.20;41.50;;;;;;5034369;28;20016;-69
2021/12/24 11:35:48;;;;;;;;;;;8.20;41.00;;;;;;5038224;28;19942;-71
2021/12/24 11:38:18;;;;;;;;;;;8.20;41.30;;;;;;5050088;28;20380;-70
2021/12/24 11:40:47;;;;;;;;;;;8.20;40.70;;;;;;5056686;28;19932;-71
2021/12/24 11:43:14;;;;;;;;;;;8.20;40.70;;;;;;5052432;28;20411;-71
2021/12/24 11:45:42;;;;;;;;;;;8.20;40.20;;;;;;5051507;28;19934;-71
2021/12/24 11:48:10;;;;;;;;;;;8.20;39.90;;;;;;5057707;28;20658;-70
2021/12/24 11:50:38;;;;;;;;;;;8.30;39.50;;;;;;5055588;28;19942;-70
2021/12/24 11:53:08;;;;;;;;;;;8.30;39.20;;;;;;5055028;28;19929;-71
2021/12/24 11:55:38;;;;;;;;;;;8.30;38.30;;;;;;5048524;28;19932;-71
2021/12/24 11:58:10;;;;;;;;;;;8.30;38.70;;;;;;5041760;28;19983;-70
2021/12/24 12:00:43;;;;;;;;;;;8.30;38.70;;;;;;5040245;28;20424;-70
2021/12/24 12:03:29;;;;;;;;;;;8.40;38.50;;;;;;5039408;28;19929;-70
2021/12/24 12:05:57;;;;;;;;;;;8.40;38.90;;;;;;5032895;28;19935;-71
2021/12/24 12:08:33;;;;;;;;;;;8.50;38.80;;;;;;5041513;28;19928;-71
2021/12/24 12:11:04;;;;;;;;;;;8.50;38.90;;;;;;5055982;28;20047;-71
2021/12/24 12:13:35;;;;;;;;;;;8.60;38.40;;;;;;5041146;28;19939;-71
2021/12/24 12:16:04;;;;;;;;;;;8.60;38.70;;;;;;5052045;28;20338;-71
2021/12/24 12:18:43;;;;;;;;;;;8.70;38.40;;;;;;5057307;28;20391;-72
2021/12/24 12:21:12;;;;;;;;;;;8.70;37.90;;;;;;5053904;28;19929;-72
2021/12/24 12:26:42;;;;;;;;;;;8.80;37.90;;;;;;5052269;28;20281;-71
2021/12/24 12:29:22;;;;;;;;;;;8.80;38.10;;;;;;5057760;28;19925;-71
2021/12/24 12:31:52;;;;;;;;;;;8.80;38.30;;;;;;5055210;28;19928;-70
2021/12/24 12:34:43;;;;;;;;;;;8.80;38.50;;;;;;5053105;28;20015;-71
2021/12/24 12:37:12;;;;;;;;;;;8.80;38.80;;;;;;5051066;28;19929;-71
2021/12/24 12:39:41;;;;;;;;;;;8.70;39.30;;;;;;5054209;28;20314;-72
2021/12/24 12:42:10;;;;;;;;;;;8.80;39.70;;;;;;5055307;28;20047;-70
2021/12/24 12:44:38;;;;;;;;;;;8.80;39.60;;;;;;5052397;28;19933;-71
2021/12/24 12:47:10;;;;;;;;;;;8.80;39.20;;;;;;5035232;28;19947;-71
2021/12/24 12:49:38;;;;;;;;;;;8.80;38.80;;;;;;5055466;28;20028;-70
2021/12/24 12:52:07;;;;;;;;;;;8.80;39.20;;;;;;5053702;28;19943;-71
2021/12/24 12:54:36;;;;;;;;;;;8.80;38.90;;;;;;5047771;28;19935;-71
2021/12/24 12:57:16;;;;;;;;;;;8.80;39.50;;;;;;5050654;28;19934;-71
2021/12/24 12:59:59;;;;;;;;;;;8.80;39.50;;;;;;5053749;28;21041;-72
2021/12/24 13:02:42;;;;;;;;;;;8.80;39.80;;;;;;5027453;28;20693;-71
2021/12/24 13:05:14;;;;;;;;;;;8.70;40.00;;;;;;5052973;28;20094;-71
2021/12/24 13:07:42;;;;;;;;;;;8.70;40.10;;;;;;5052036;28;19932;-71
2021/12/24 13:10:09;;;;;;;;;;;8.70;40.60;;;;;;5054207;28;19950;-70
2021/12/24 13:12:39;;;;;;;;;;;8.70;40.80;;;;;;5055036;28;19932;-72
2021/12/24 13:15:15;;;;;;;;;;;8.70;40.70;;;;;;5050775;28;19931;-71
2021/12/24 13:17:44;;;;;;;;;;;8.70;40.30;;;;;;5051513;28;19938;-71
2021/12/24 13:20:18;;;;;;;;;;;8.70;40.70;;;;;;5056202;28;20043;-71
2021/12/24 13:22:44;;;;;;;;;;;8.70;40.70;;;;;;5055129;28;19938;-70
2021/12/24 13:25:14;;;;;;;;;;;8.70;40.60;;;;;;5053946;28;20563;-70
2021/12/24 13:27:44;;;;;;;;;;;8.70;41.00;;;;;;5052472;28;19928;-71
2021/12/24 13:30:14;;;;;;;;;;;8.70;41.20;;;;;;5054659;28;19964;-70
2021/12/24 13:32:43;;;;;;;;;;;8.70;41.00;;;;;;5057048;28;20391;-70
2021/12/24 13:35:12;;;;;;;;;;;8.70;41.10;;;;;;5052527;28;19936;-70
2021/12/24 13:37:45;;;;;;;;;;;8.70;41.20;;;;;;5056444;28;19967;-71
2021/12/24 13:40:14;;;;;;;;;;;8.70;40.90;;;;;;5055483;28;19933;-71
2021/12/24 13:42:45;;;;;;;;;;;8.60;41.40;;;;;;5053174;28;20418;-72
2021/12/24 13:45:20;;;;;;;;;;;8.60;41.60;;;;;;5034136;28;19974;-73
2021/12/24 13:48:02;;;;;;;;;;;8.60;41.50;;;;;;5054397;28;19925;-71
2021/12/24 13:56:26;;;;;;;;;;;8.60;40.80;;;;;;5049546;28;20354;-70
2021/12/24 13:58:57;;;;;;;;;;;8.60;40.80;;;;;;5053019;28;21157;-71
2021/12/24 14:01:25;;;;;;;;;;;8.60;40.90;;;;;;5052462;28;19928;-71
2021/12/24 14:03:54;;;;;;;;;;;8.70;40.40;;;;;;5040937;28;19929;-73
2021/12/24 14:06:33;;;;;;;;;;;8.70;39.70;;;;;;5028786;28;19933;-71
2021/12/24 14:09:08;;;;;;;;;;;8.70;38.60;;;;;;5037542;28;19929;-71
2021/12/24 14:11:37;;;;;;;;;;;8.70;38.40;;;;;;5037057;28;20011;-71
2021/12/24 14:14:11;;;;;;;;;;;8.70;38.50;;;;;;5031517;28;19935;-70
2021/12/24 14:16:54;;;;;;;;;;;8.70;39.40;;;;;;5050912;28;19935;-69
2021/12/24 14:19:31;;;;;;;;;;;8.70;39.90;;;;;;5035247;28;19952;-69
2021/12/24 14:22:06;;;;;;;;;;;8.60;41.20;;;;;;5051213;28;20387;-69
2021/12/24 14:24:36;;;;;;;;;;;8.60;42.30;;;;;;5050832;28;19932;-69
2021/12/24 14:27:06;;;;;;;;;;;8.60;44.00;;;;;;5040907;28;19928;-68
2021/12/24 14:29:37;;;;;;;;;;;8.50;45.00;;;;;;5033441;28;19933;-70
2021/12/24 14:32:09;;;;;;;;;;;8.50;45.90;;;;;;5037011;28;19931;-68
2021/12/24 14:34:38;;;;;;;;;;;8.50;46.10;;;;;;5049736;28;20012;-69
2021/12/24 14:37:08;;;;;;;;;;;8.50;46.60;;;;;;5050155;28;20122;-69
2021/12/24 14:39:37;;;;;;;;;;;8.40;47.00;;;;;;5051368;28;20020;-70
2021/12/24 14:42:08;;;;;;;;;;;8.40;47.30;;;;;;5043050;28;19933;-70
2021/12/24 14:44:41;;;;;;;;;;;8.40;47.30;;;;;;5035073;28;20016;-69
2021/12/24 14:47:09;;;;;;;;;;;8.40;47.50;;;;;;5034891;28;19955;-70
2021/12/24 14:49:38;;;;;;;;;;;8.40;47.60;;;;;;5023664;28;19933;-69
2021/12/24 14:52:20;;;;;;;;;;;8.40;47.90;;;;;;5022435;28;19929;-69
2021/12/24 14:55:07;;;;;;;;;;;8.40;48.10;;;;;;5033072;28;19943;-69
2021/12/24 14:57:43;;;;;;;;;;;8.40;47.90;;;;;;5034371;28;19933;-69
2021/12/24 15:00:14;;;;;;;;;;;8.40;48.30;;;;;;5037846;28;19932;-68
2021/12/24 15:02:43;;;;;;;;;;;8.30;47.80;;;;;;5038889;28;20406;-70
2021/12/24 15:05:22;;;;;;;;;;;8.40;48.50;;;;;;5036416;28;19939;-69
2021/12/24 15:07:50;;;;;;;;;;;8.40;49.00;;;;;;5033243;28;19943;-70
2021/12/24 15:10:22;;;;;;;;;;;8.40;49.10;;;;;;5040263;28;20339;-69
2021/12/24 15:12:58;;;;;;;;;;;8.40;49.80;;;;;;5039368;28;19929;-70
2021/12/24 15:15:28;;;;;;;;;;;8.40;50.50;;;;;;5031092;28;20023;-70
2021/12/24 15:17:56;;;;;;;;;;;8.50;51.20;;;;;;5041546;28;19933;-70
2021/12/24 15:20:27;;;;;;;;;;;8.50;51.40;;;;;;5054759;28;19935;-69
2021/12/24 15:22:56;;;;;;;;;;;8.50;51.50;;;;;;5032989;28;19933;-70
2021/12/24 15:25:24;;;;;;;;;;;8.30;52.20;;;;;;5025457;28;20413;-69
2021/12/24 15:27:54;;;;;;;;;;;8.30;52.90;;;;;;5049482;28;19929;-69
2021/12/24 15:30:22;;;;;;;;;;;8.30;53.00;;;;;;5054426;28;19928;-70
2021/12/24 15:32:51;;;;;;;;;;;8.20;53.60;;;;;;5058166;28;20320;-70
2021/12/24 15:35:19;;;;;;;;;;;8.20;54.10;;;;;;5047836;28;19936;-70
2021/12/24 15:37:46;;;;;;;;;;;8.10;54.40;;;;;;5034380;28;20454;-70
2021/12/24 15:40:15;;;;;;;;;;;8.10;55.20;;;;;;5034904;28;19925;-69
2021/12/24 15:43:04;;;;;;;;;;;8.10;56.10;;;;;;5054524;28;20093;-71
2021/12/24 15:45:35;;;;;;;;;;;8.10;56.80;;;;;;5047135;28;20010;-70
2021/12/24 15:48:06;;;;;;;;;;;8.10;56.80;;;;;;5050807;28;19929;-70
2021/12/24 15:50:34;;;;;;;;;;;8.00;57.10;;;;;;5040856;28;20006;-70
2021/12/24 15:53:02;;;;;;;;;;;8.10;57.80;;;;;;5034028;28;20396;-69
2021/12/24 15:55:32;;;;;;;;;;;8.00;57.90;;;;;;5048290;28;19995;-69
2021/12/24 15:58:04;;;;;;;;;;;7.90;57.90;;;;;;5047986;28;19928;-69
2021/12/24 16:00:34;;;;;;;;;;;7.90;58.50;;;;;;5054391;28;19986;-70
2021/12/24 16:03:02;;;;;;;;;;;7.90;58.70;;;;;;5046160;28;19928;-69
2021/12/24 16:05:32;;;;;;;;;;;7.90;59.30;;;;;;5032206;28;19932;-69
2021/12/24 16:08:00;;;;;;;;;;;7.90;59.50;;;;;;5036498;28;19929;-69
2021/12/24 16:10:27;;;;;;;;;;;7.90;59.60;;;;;;5030386;28;19933;-69
2021/12/24 16:12:57;;;;;;;;;;;7.90;59.90;;;;;;5037287;28;19935;-70